sensor_id;sensor_type;location;lat;lon;timestamp;temperature;humidity
82877;DHT22;72655;47.596;7.658;2024-03-08T07:02:49;3.70;99.90
82877;DHT22;72655;47.596;7.658;2024-03-08T07:05:19;3.70;99.90
82877;DHT22;72655;47.596;7.658;2024-03-08T07:07:45;3.80;99.90
82877;DHT22;72655;47.596;7.658;2024-03-08T07:10:13;3.80;99.90
82877;DHT22;72655;47.596;7.658;2024-03-08T07:12:41;3.90;99.90
82877;DHT22;72655;47.596;7.658;2024-03-08T07:15:07;3.90;99.90
82877;DHT22;72655;47.596;7.658;2024-03-08T07:17:38;3.90;99.90
82877;DHT22;72655;47.596;7.658;2024-03-08T07:20:07;4.00;99.90
82877;DHT22;72655;47.596;7.658;2024-03-08T07:22:37;4.00;99.90
82877;DHT22;72655;47.596;7.658;2024-03-08T07:25:04;4.10;99.90
82877;DHT22;72655;47.596;7.658;2024-03-08T07:27:46;4.10;99.90
82877;DHT22;72655;47.596;7.658;2024-03-08T07:30:13;4.20;99.90
82877;DHT22;72655;47.596;7.658;2024-03-08T07:32:59;4.30;99.90
82877;DHT22;72655;47.596;7.658;2024-03-08T07:35:29;4.30;99.90
82877;DHT22;72655;47.596;7.658;2024-03-08T07:37:56;4.30;99.90
82877;DHT22;72655;47.596;7.658;2024-03-08T07:40:25;4.30;99.90
82877;DHT22;72655;47.596;7.658;2024-03-08T07:42:52;4.30;99.90
82877;DHT22;72655;47.596;7.658;2024-03-08T07:45:18;4.40;99.90
82877;DHT22;72655;47.596;7.658;2024-03-08T07:47:47;4.40;99.90
82877;DHT22;72655;47.596;7.658;2024-03-08T07:50:14;4.40;99.90
82877;DHT22;72655;47.596;7.658;2024-03-08T07:52:43;4.40;99.90
82877;DHT22;72655;47.596;7.658;2024-03-08T07:55:09;4.40;99.90
82877;DHT22;72655;47.596;7.658;2024-03-08T07:57:37;4.40;99.90
82877;DHT22;72655;47.596;7.658;2024-03-08T08:00:05;4.40;99.90
82877;DHT22;72655;47.596;7.658;2024-03-08T08:02:33;4.50;99.90
82877;DHT22;72655;47.596;7.658;2024-03-08T08:05:00;4.50;99.90
82877;DHT22;72655;47.596;7.658;2024-03-08T08:07:27;4.60;99.90
82877;DHT22;72655;47.596;7.658;2024-03-08T08:09:55;4.60;99.90
82877;DHT22;72655;47.596;7.658;2024-03-08T08:12:22;4.60;99.90
82877;DHT22;72655;47.596;7.658;2024-03-08T08:14:49;4.70;99.90
82877;DHT22;72655;47.596;7.658;2024-03-08T08:17:16;4.70;99.90
82877;DHT22;72655;47.596;7.658;2024-03-08T08:19:42;4.80;99.90
82877;DHT22;72655;47.596;7.658;2024-03-08T08:22:09;4.80;99.90
82877;DHT22;72655;47.596;7.658;2024-03-08T08:24:36;4.90;99.90
82877;DHT22;72655;47.596;7.658;2024-03-08T08:27:05;4.90;99.90
82877;DHT22;72655;47.596;7.658;2024-03-08T08:29:32;4.90;99.90
82877;DHT22;72655;47.596;7.658;2024-03-08T08:31:59;5.00;99.90
82877;DHT22;72655;47.596;7.658;2024-03-08T08:34:26;4.90;99.90
82877;DHT22;72655;47.596;7.658;2024-03-08T08:36:53;4.90;99.90
82877;DHT22;72655;47.596;7.658;2024-03-08T08:39:21;5.00;99.90
82877;DHT22;72655;47.596;7.658;2024-03-08T08:41:48;4.90;99.90
82877;DHT22;72655;47.596;7.658;2024-03-08T08:44:16;4.90;99.90
82877;DHT22;72655;47.596;7.658;2024-03-08T08:46:43;4.90;99.90
82877;DHT22;72655;47.596;7.658;2024-03-08T08:49:09;5.00;99.90
82877;DHT22;72655;47.596;7.658;2024-03-08T08:51:39;5.00;99.90
82877;DHT22;72655;47.596;7.658;2024-03-08T08:54:06;5.00;99.90
82877;DHT22;72655;47.596;7.658;2024-03-08T08:56:33;5.00;99.90
82877;DHT22;72655;47.596;7.658;2024-03-08T08:59:00;5.00;99.90
82877;DHT22;72655;47.596;7.658;2024-03-08T09:01:31;5.00;99.90
82877;DHT22;72655;47.596;7.658;2024-03-08T09:03:58;5.00;99.90
82877;DHT22;72655;47.596;7.658;2024-03-08T09:06:25;5.10;99.90
82877;DHT22;72655;47.596;7.658;2024-03-08T09:08:51;5.10;99.90
82877;DHT22;72655;47.596;7.658;2024-03-08T09:11:18;5.10;99.90
82877;DHT22;72655;47.596;7.658;2024-03-08T09:13:45;5.10;99.90
82877;DHT22;72655;47.596;7.658;2024-03-08T09:16:12;5.10;99.90
82877;DHT22;72655;47.596;7.658;2024-03-08T09:18:40;5.10;99.90
82877;DHT22;72655;47.596;7.658;2024-03-08T09:21:08;5.10;99.90
82877;DHT22;72655;47.596;7.658;2024-03-08T09:23:35;5.10;99.90
82877;DHT22;72655;47.596;7.658;2024-03-08T09:26:02;5.20;99.90
82877;DHT22;72655;47.596;7.658;2024-03-08T09:28:29;5.20;99.90
82877;DHT22;72655;47.596;7.658;2024-03-08T09:30:56;5.20;99.90
82877;DHT22;72655;47.596;7.658;2024-03-08T09:33:24;5.20;99.90
82877;DHT22;72655;47.596;7.658;2024-03-08T09:35:52;5.30;99.90
82877;DHT22;72655;47.596;7.658;2024-03-08T09:38:19;5.20;99.90
82877;DHT22;72655;47.596;7.658;2024-03-08T09:40:46;5.30;99.90
82877;DHT22;72655;47.596;7.658;2024-03-08T09:43:13;5.30;99.90
82877;DHT22;72655;47.596;7.658;2024-03-08T09:45:40;5.30;99.90
82877;DHT22;72655;47.596;7.658;2024-03-08T09:48:08;5.30;99.90
82877;DHT22;72655;47.596;7.658;2024-03-08T09:50:37;5.30;99.90
82877;DHT22;72655;47.596;7.658;2024-03-08T09:53:05;5.40;99.90
82877;DHT22;72655;47.596;7.658;2024-03-08T09:55:34;5.40;99.90
82877;DHT22;72655;47.596;7.658;2024-03-08T09:58:02;5.40;99.90
82877;DHT22;72655;47.596;7.658;2024-03-08T10:01:01;5.40;99.90
82877;DHT22;72655;47.596;7.658;2024-03-08T10:03:30;5.50;99.90
82877;DHT22;72655;47.596;7.658;2024-03-08T10:05:57;5.50;99.90
82877;DHT22;72655;47.596;7.658;2024-03-08T10:08:27;5.50;99.90
82877;DHT22;72655;47.596;7.658;2024-03-08T10:10:54;5.60;99.90
82877;DHT22;72655;47.596;7.658;2024-03-08T10:13:23;5.60;99.90
82877;DHT22;72655;47.596;7.658;2024-03-08T10:15:52;5.70;99.90
82877;DHT22;72655;47.596;7.658;2024-03-08T10:18:19;5.70;99.90
82877;DHT22;72655;47.596;7.658;2024-03-08T10:20:45;5.70;99.90
82877;DHT22;72655;47.596;7.658;2024-03-08T10:23:12;5.80;99.90
82877;DHT22;72655;47.596;7.658;2024-03-08T10:25:40;5.80;99.90
82877;DHT22;72655;47.596;7.658;2024-03-08T10:28:07;5.80;99.90
82877;DHT22;72655;47.596;7.658;2024-03-08T10:30:34;5.90;99.90
82877;DHT22;72655;47.596;7.658;2024-03-08T10:33:01;5.90;99.90
82877;DHT22;72655;47.596;7.658;2024-03-08T10:35:30;6.00;99.90
82877;DHT22;72655;47.596;7.658;2024-03-08T10:37:57;6.00;99.90
82877;DHT22;72655;47.596;7.658;2024-03-08T10:40:26;6.10;99.90
82877;DHT22;72655;47.596;7.658;2024-03-08T10:42:55;6.10;99.90
82877;DHT22;72655;47.596;7.658;2024-03-08T10:45:26;6.20;99.90
82877;DHT22;72655;47.596;7.658;2024-03-08T10:48:03;6.20;99.90
82877;DHT22;72655;47.596;7.658;2024-03-08T10:50:31;6.30;99.90
82877;DHT22;72655;47.596;7.658;2024-03-08T10:52:59;6.30;99.90
82877;DHT22;72655;47.596;7.658;2024-03-08T10:55:27;6.40;99.90
82877;DHT22;72655;47.596;7.658;2024-03-08T10:57:56;6.40;99.90
82877;DHT22;72655;47.596;7.658;2024-03-08T11:00:22;6.40;99.90
82877;DHT22;72655;47.596;7.658;2024-03-08T11:02:52;6.50;99.90
82877;DHT22;72655;47.596;7.658;2024-03-08T11:05:31;6.50;99.90
82877;DHT22;72655;47.596;7.658;2024-03-08T11:07:59;6.60;99.90
82877;DHT22;72655;47.596;7.658;2024-03-08T11:10:26;6.60;99.90
82877;DHT22;72655;47.596;7.658;2024-03-08T11:12:53;6.80;99.90
82877;DHT22;72655;47.596;7.658;2024-03-08T11:15:21;6.90;99.90
82877;DHT22;72655;47.596;7.658;2024-03-08T11:17:50;6.90;99.90
82877;DHT22;72655;47.596;7.658;2024-03-08T11:20:17;7.00;99.90
82877;DHT22;72655;47.596;7.658;2024-03-08T11:22:47;7.00;99.90
82877;DHT22;72655;47.596;7.658;2024-03-08T11:25:30;7.00;99.90
82877;DHT22;72655;47.596;7.658;2024-03-08T11:28:06;7.10;99.90
82877;DHT22;72655;47.596;7.658;2024-03-08T11:30:34;7.10;99.90
82877;DHT22;72655;47.596;7.658;2024-03-08T11:33:05;7.20;99.90
82877;DHT22;72655;47.596;7.658;2024-03-08T11:35:35;7.20;99.90
82877;DHT22;72655;47.596;7.658;2024-03-08T11:38:02;7.30;99.90
82877;DHT22;72655;47.596;7.658;2024-03-08T11:40:28;7.40;99.90
82877;DHT22;72655;47.596;7.658;2024-03-08T11:42:59;7.50;99.90
82877;DHT22;72655;47.596;7.658;2024-03-08T11:45:28;7.50;99.90
82877;DHT22;72655;47.596;7.658;2024-03-08T11:47:56;7.60;99.90
82877;DHT22;72655;47.596;7.658;2024-03-08T11:50:24;7.60;99.90
82877;DHT22;72655;47.596;7.658;2024-03-08T11:52:51;7.70;99.90
82877;DHT22;72655;47.596;7.658;2024-03-08T11:55:18;7.80;99.90
82877;DHT22;72655;47.596;7.658;2024-03-08T11:57:45;7.80;99.90
82877;DHT22;72655;47.596;7.658;2024-03-08T12:00:14;7.90;99.90
82877;DHT22;72655;47.596;7.658;2024-03-08T12:03:01;8.00;99.90
82877;DHT22;72655;47.596;7.658;2024-03-08T12:05:28;8.40;99.90
82877;DHT22;72655;47.596;7.658;2024-03-08T12:07:56;8.60;99.90
82877;DHT22;72655;47.596;7.658;2024-03-08T12:10:23;8.60;99.90
82877;DHT22;72655;47.596;7.658;2024-03-08T12:12:51;8.60;99.90
82877;DHT22;72655;47.596;7.658;2024-03-08T12:15:18;8.60;99.90
82877;DHT22;72655;47.596;7.658;2024-03-08T12:17:45;8.60;99.90
82877;DHT22;72655;47.596;7.658;2024-03-08T12:20:17;8.60;99.90
82877;DHT22;72655;47.596;7.658;2024-03-08T12:22:44;8.60;99.90
82877;DHT22;72655;47.596;7.658;2024-03-08T12:25:11;8.60;99.90
82877;DHT22;72655;47.596;7.658;2024-03-08T12:27:39;8.70;99.90
82877;DHT22;72655;47.596;7.658;2024-03-08T12:30:16;8.80;99.90
82877;DHT22;72655;47.596;7.658;2024-03-08T12:32:46;8.80;99.90
82877;DHT22;72655;47.596;7.658;2024-03-08T12:35:13;8.80;99.90
82877;DHT22;72655;47.596;7.658;2024-03-08T12:37:41;8.80;99.90
82877;DHT22;72655;47.596;7.658;2024-03-08T12:40:08;8.80;99.90
82877;DHT22;72655;47.596;7.658;2024-03-08T12:42:35;8.90;99.90
82877;DHT22;72655;47.596;7.658;2024-03-08T12:45:04;9.00;99.90
82877;DHT22;72655;47.596;7.658;2024-03-08T12:47:35;9.10;99.90
82877;DHT22;72655;47.596;7.658;2024-03-08T12:50:01;9.20;99.90
82877;DHT22;72655;47.596;7.658;2024-03-08T12:52:28;9.30;99.90
82877;DHT22;72655;47.596;7.658;2024-03-08T12:54:57;9.40;99.90
82877;DHT22;72655;47.596;7.658;2024-03-08T12:57:28;9.50;99.90
82877;DHT22;72655;47.596;7.658;2024-03-08T12:59:55;9.50;99.90
82877;DHT22;72655;47.596;7.658;2024-03-08T13:02:21;9.70;99.90
82877;DHT22;72655;47.596;7.658;2024-03-08T13:04:49;10.20;99.90
82877;DHT22;72655;47.596;7.658;2024-03-08T13:07:20;10.90;99.90
82877;DHT22;72655;47.596;7.658;2024-03-08T13:09:49;11.20;99.90
82877;DHT22;72655;47.596;7.658;2024-03-08T13:12:17;11.00;99.90
82877;DHT22;72655;47.596;7.658;2024-03-08T13:14:45;10.90;99.90
82877;DHT22;72655;47.596;7.658;2024-03-08T13:17:13;11.00;99.90
82877;DHT22;72655;47.596;7.658;2024-03-08T13:19:39;11.40;99.90
82877;DHT22;72655;47.596;7.658;2024-03-08T13:22:07;12.00;99.90
82877;DHT22;72655;47.596;7.658;2024-03-08T13:24:37;12.70;99.90
82877;DHT22;72655;47.596;7.658;2024-03-08T13:27:06;13.30;99.90
82877;DHT22;72655;47.596;7.658;2024-03-08T13:29:43;13.80;99.90
82877;DHT22;72655;47.596;7.658;2024-03-08T13:32:10;13.90;99.90
82877;DHT22;72655;47.596;7.658;2024-03-08T13:34:37;14.00;99.90
82877;DHT22;72655;47.596;7.658;2024-03-08T13:37:04;14.00;99.90
82877;DHT22;72655;47.596;7.658;2024-03-08T13:39:31;14.00;99.90
82877;DHT22;72655;47.596;7.658;2024-03-08T13:42:06;14.20;99.90
82877;DHT22;72655;47.596;7.658;2024-03-08T13:44:35;14.40;99.90
82877;DHT22;72655;47.596;7.658;2024-03-08T13:47:03;14.40;99.90
82877;DHT22;72655;47.596;7.658;2024-03-08T13:49:30;14.60;99.90
82877;DHT22;72655;47.596;7.658;2024-03-08T13:51:58;15.10;99.90
82877;DHT22;72655;47.596;7.658;2024-03-08T13:54:25;15.60;99.90
82877;DHT22;72655;47.596;7.658;2024-03-08T13:56:53;16.30;99.90
82877;DHT22;72655;47.596;7.658;2024-03-08T13:59:20;17.20;99.90
82877;DHT22;72655;47.596;7.658;2024-03-08T14:01:48;17.90;99.90
82877;DHT22;72655;47.596;7.658;2024-03-08T14:04:16;18.30;99.90
82877;DHT22;72655;47.596;7.658;2024-03-08T14:06:43;18.40;99.90
82877;DHT22;72655;47.596;7.658;2024-03-08T14:09:10;18.50;99.70
82877;DHT22;72655;47.596;7.658;2024-03-08T14:11:42;18.80;98.60
82877;DHT22;72655;47.596;7.658;2024-03-08T14:14:09;19.10;98.30
82877;DHT22;72655;47.596;7.658;2024-03-08T14:16:37;19.50;97.90
82877;DHT22;72655;47.596;7.658;2024-03-08T14:19:04;19.70;97.10
82877;DHT22;72655;47.596;7.658;2024-03-08T14:21:33;20.00;95.50
82877;DHT22;72655;47.596;7.658;2024-03-08T14:23:59;20.10;95.60
82877;DHT22;72655;47.596;7.658;2024-03-08T14:26:26;20.10;94.80
82877;DHT22;72655;47.596;7.658;2024-03-08T14:28:52;19.70;93.90
82877;DHT22;72655;47.596;7.658;2024-03-08T14:31:19;18.90;94.90
82877;DHT22;72655;47.596;7.658;2024-03-08T14:33:49;18.20;95.30
82877;DHT22;72655;47.596;7.658;2024-03-08T14:36:16;17.30;96.70
82877;DHT22;72655;47.596;7.658;2024-03-08T14:38:46;16.60;97.40
82877;DHT22;72655;47.596;7.658;2024-03-08T14:41:13;16.10;97.60
82877;DHT22;72655;47.596;7.658;2024-03-08T14:43:42;16.30;97.90
82877;DHT22;72655;47.596;7.658;2024-03-08T14:46:10;16.80;97.50
82877;DHT22;72655;47.596;7.658;2024-03-08T14:48:39;17.30;97.90
82877;DHT22;72655;47.596;7.658;2024-03-08T14:51:06;18.10;97.00
82877;DHT22;72655;47.596;7.658;2024-03-08T14:53:35;18.70;96.10
82877;DHT22;72655;47.596;7.658;2024-03-08T14:56:07;18.70;95.10
82877;DHT22;72655;47.596;7.658;2024-03-08T14:58:34;18.60;95.50
82877;DHT22;72655;47.596;7.658;2024-03-08T15:01:03;18.20;95.50
82877;DHT22;72655;47.596;7.658;2024-03-08T15:03:34;17.10;96.20
82877;DHT22;72655;47.596;7.658;2024-03-08T15:06:02;16.60;96.30
82877;DHT22;72655;47.596;7.658;2024-03-08T15:08:33;16.00;97.00
82877;DHT22;72655;47.596;7.658;2024-03-08T15:11:00;15.30;97.60
82877;DHT22;72655;47.596;7.658;2024-03-08T15:13:29;14.80;98.20
82877;DHT22;72655;47.596;7.658;2024-03-08T15:16:05;14.40;98.80
82877;DHT22;72655;47.596;7.658;2024-03-08T15:18:32;13.90;99.50
82877;DHT22;72655;47.596;7.658;2024-03-08T15:21:02;13.40;99.90
82877;DHT22;72655;47.596;7.658;2024-03-08T15:23:32;13.10;99.90
82877;DHT22;72655;47.596;7.658;2024-03-08T15:25:58;12.90;99.90
82877;DHT22;72655;47.596;7.658;2024-03-08T15:28:26;12.70;99.90
82877;DHT22;72655;47.596;7.658;2024-03-08T15:31:03;12.60;99.90
82877;DHT22;72655;47.596;7.658;2024-03-08T15:33:32;12.50;99.90
82877;DHT22;72655;47.596;7.658;2024-03-08T15:35:59;12.60;99.90
82877;DHT22;72655;47.596;7.658;2024-03-08T15:38:33;12.70;99.90
82877;DHT22;72655;47.596;7.658;2024-03-08T15:40:59;13.10;99.90
82877;DHT22;72655;47.596;7.658;2024-03-08T15:43:26;13.60;99.90
82877;DHT22;72655;47.596;7.658;2024-03-08T15:45:53;14.30;99.90
82877;DHT22;72655;47.596;7.658;2024-03-08T15:48:21;14.90;99.90
82877;DHT22;72655;47.596;7.658;2024-03-08T15:50:48;15.50;99.90
82877;DHT22;72655;47.596;7.658;2024-03-08T15:53:16;15.60;99.90
82877;DHT22;72655;47.596;7.658;2024-03-08T15:55:44;15.50;99.90
82877;DHT22;72655;47.596;7.658;2024-03-08T15:58:12;15.40;99.90
82877;DHT22;72655;47.596;7.658;2024-03-08T16:00:38;15.00;99.90
82877;DHT22;72655;47.596;7.658;2024-03-08T16:03:11;14.60;99.90
82877;DHT22;72655;47.596;7.658;2024-03-08T16:05:40;14.20;99.90
82877;DHT22;72655;47.596;7.658;2024-03-08T16:08:06;13.60;99.90
82877;DHT22;72655;47.596;7.658;2024-03-08T16:10:35;13.30;99.90
82877;DHT22;72655;47.596;7.658;2024-03-08T16:13:02;12.80;99.90
82877;DHT22;72655;47.596;7.658;2024-03-08T16:15:30;12.40;99.90
82877;DHT22;72655;47.596;7.658;2024-03-08T16:17:56;12.00;99.90
82877;DHT22;72655;47.596;7.658;2024-03-08T16:20:23;11.70;99.90
82877;DHT22;72655;47.596;7.658;2024-03-08T16:22:52;11.50;99.90
82877;DHT22;72655;47.596;7.658;2024-03-08T16:25:20;11.30;99.90
82877;DHT22;72655;47.596;7.658;2024-03-08T16:27:48;11.00;99.90
82877;DHT22;72655;47.596;7.658;2024-03-08T16:30:15;10.80;99.90
82877;DHT22;72655;47.596;7.658;2024-03-08T16:32:42;10.60;99.90
82877;DHT22;72655;47.596;7.658;2024-03-08T16:35:10;10.50;99.90
82877;DHT22;72655;47.596;7.658;2024-03-08T16:37:37;10.40;99.90
82877;DHT22;72655;47.596;7.658;2024-03-08T16:40:07;10.20;99.90
82877;DHT22;72655;47.596;7.658;2024-03-08T16:42:41;10.10;99.90
82877;DHT22;72655;47.596;7.658;2024-03-08T16:45:08;9.90;99.90
82877;DHT22;72655;47.596;7.658;2024-03-08T16:47:36;9.80;99.90
82877;DHT22;72655;47.596;7.658;2024-03-08T16:50:04;9.80;99.90
82877;DHT22;72655;47.596;7.658;2024-03-08T16:52:33;9.70;99.90
82877;DHT22;72655;47.596;7.658;2024-03-08T16:55:00;9.60;99.90
82877;DHT22;72655;47.596;7.658;2024-03-08T16:57:28;9.60;99.90
82877;DHT22;72655;47.596;7.658;2024-03-08T16:59:57;9.50;99.90
82877;DHT22;72655;47.596;7.658;2024-03-08T17:02:23;9.40;99.90
82877;DHT22;72655;47.596;7.658;2024-03-08T17:04:50;9.40;99.90
82877;DHT22;72655;47.596;7.658;2024-03-08T17:07:18;9.30;99.90
82877;DHT22;72655;47.596;7.658;2024-03-08T17:09:46;9.20;99.90
82877;DHT22;72655;47.596;7.658;2024-03-08T17:12:13;9.20;99.90
82877;DHT22;72655;47.596;7.658;2024-03-08T17:14:45;9.10;99.90
82877;DHT22;72655;47.596;7.658;2024-03-08T17:17:12;9.00;99.90
82877;DHT22;72655;47.596;7.658;2024-03-08T17:19:39;9.00;99.90
82877;DHT22;72655;47.596;7.658;2024-03-08T17:22:06;9.00;99.90
82877;DHT22;72655;47.596;7.658;2024-03-08T17:24:33;9.00;99.90
82877;DHT22;72655;47.596;7.658;2024-03-08T17:27:00;8.90;99.90
82877;DHT22;72655;47.596;7.658;2024-03-08T17:29:26;8.80;99.90
82877;DHT22;72655;47.596;7.658;2024-03-08T17:31:54;8.80;99.90
82877;DHT22;72655;47.596;7.658;2024-03-08T17:34:21;8.80;99.90
82877;DHT22;72655;47.596;7.658;2024-03-08T17:36:48;8.80;99.90
82877;DHT22;72655;47.596;7.658;2024-03-08T17:39:17;8.70;99.90
82877;DHT22;72655;47.596;7.658;2024-03-08T17:41:45;8.60;99.90
82877;DHT22;72655;47.596;7.658;2024-03-08T17:44:15;8.60;99.90
82877;DHT22;72655;47.596;7.658;2024-03-08T17:46:42;8.60;99.90
82877;DHT22;72655;47.596;7.658;2024-03-08T17:49:11;8.60;99.90
82877;DHT22;72655;47.596;7.658;2024-03-08T17:51:37;8.60;99.90
82877;DHT22;72655;47.596;7.658;2024-03-08T17:54:04;8.60;99.90
82877;DHT22;72655;47.596;7.658;2024-03-08T17:56:32;8.50;99.90
82877;DHT22;72655;47.596;7.658;2024-03-08T17:58:59;8.50;99.90
82877;DHT22;72655;47.596;7.658;2024-03-08T18:01:27;8.50;99.90
82877;DHT22;72655;47.596;7.658;2024-03-08T18:03:53;8.50;99.90
82877;DHT22;72655;47.596;7.658;2024-03-08T18:06:22;8.50;99.90
82877;DHT22;72655;47.596;7.658;2024-03-08T18:08:51;8.50;99.90
82877;DHT22;72655;47.596;7.658;2024-03-08T18:11:18;8.40;99.90
82877;DHT22;72655;47.596;7.658;2024-03-08T18:13:48;8.50;99.90
82877;DHT22;72655;47.596;7.658;2024-03-08T18:16:17;8.50;99.90
82877;DHT22;72655;47.596;7.658;2024-03-08T18:18:44;8.50;99.90
82877;DHT22;72655;47.596;7.658;2024-03-08T18:21:13;8.50;99.90
82877;DHT22;72655;47.596;7.658;2024-03-08T18:23:41;8.50;99.90
82877;DHT22;72655;47.596;7.658;2024-03-08T18:26:11;8.40;99.90
82877;DHT22;72655;47.596;7.658;2024-03-08T18:28:38;8.30;99.90
82877;DHT22;72655;47.596;7.658;2024-03-08T18:31:06;8.40;99.90
82877;DHT22;72655;47.596;7.658;2024-03-08T18:33:34;8.40;99.90
82877;DHT22;72655;47.596;7.658;2024-03-08T18:36:01;8.40;99.90
82877;DHT22;72655;47.596;7.658;2024-03-08T18:38:32;8.40;99.90
82877;DHT22;72655;47.596;7.658;2024-03-08T18:41:00;8.40;99.90
82877;DHT22;72655;47.596;7.658;2024-03-08T18:43:27;8.30;99.90
82877;DHT22;72655;47.596;7.658;2024-03-08T18:45:54;8.30;99.90
82877;DHT22;72655;47.596;7.658;2024-03-08T18:48:22;8.30;99.90
82877;DHT22;72655;47.596;7.658;2024-03-08T18:50:51;8.30;99.90
